sensor_id;sensor_type;location;lat;lon;timestamp;P1;durP1;ratioP1;P2;durP2;ratioP2
18286;SDS011;9269;50.838;12.094;2022-09-09T00:01:49;3.40;;;2.03;;
18286;SDS011;9269;50.838;12.094;2022-09-09T00:04:25;2.07;;;1.63;;
18286;SDS011;9269;50.838;12.094;2022-09-09T00:06:59;1.97;;;1.77;;
18286;SDS011;9269;50.838;12.094;2022-09-09T00:09:36;2.00;;;1.90;;
18286;SDS011;9269;50.838;12.094;2022-09-09T00:12:12;3.13;;;2.00;;
18286;SDS011;9269;50.838;12.094;2022-09-09T00:14:47;1.80;;;1.70;;
18286;SDS011;9269;50.838;12.094;2022-09-09T00:17:24;2.10;;;1.80;;
18286;SDS011;9269;50.838;12.094;2022-09-09T00:20:03;2.20;;;1.60;;
18286;SDS011;9269;50.838;12.094;2022-09-09T00:22:41;2.17;;;1.73;;
18286;SDS011;9269;50.838;12.094;2022-09-09T00:25:15;2.30;;;1.73;;
18286;SDS011;9269;50.838;12.094;2022-09-09T00:27:51;2.53;;;1.70;;
18286;SDS011;9269;50.838;12.094;2022-09-09T00:30:22;3.20;;;1.93;;
18286;SDS011;9269;50.838;12.094;2022-09-09T00:32:55;4.30;;;1.90;;
18286;SDS011;9269;50.838;12.094;2022-09-09T00:35:29;2.60;;;1.63;;
18286;SDS011;9269;50.838;12.094;2022-09-09T00:38:03;3.20;;;2.10;;
18286;SDS011;9269;50.838;12.094;2022-09-09T00:40:39;1.83;;;1.53;;
18286;SDS011;9269;50.838;12.094;2022-09-09T00:43:21;1.90;;;1.80;;
18286;SDS011;9269;50.838;12.094;2022-09-09T00:46:09;2.00;;;1.90;;
18286;SDS011;9269;50.838;12.094;2022-09-09T00:48:57;3.27;;;1.60;;
18286;SDS011;9269;50.838;12.094;2022-09-09T00:51:36;4.70;;;1.70;;
18286;SDS011;9269;50.838;12.094;2022-09-09T00:54:31;1.60;;;1.50;;
18286;SDS011;9269;50.838;12.094;2022-09-09T00:57:12;1.60;;;1.50;;
18286;SDS011;9269;50.838;12.094;2022-09-09T00:59:50;2.37;;;1.30;;
18286;SDS011;9269;50.838;12.094;2022-09-09T01:02:27;1.40;;;1.30;;
18286;SDS011;9269;50.838;12.094;2022-09-09T01:05:10;3.37;;;1.73;;
18286;SDS011;9269;50.838;12.094;2022-09-09T01:07:49;2.20;;;1.30;;
18286;SDS011;9269;50.838;12.094;2022-09-09T01:10:36;1.63;;;1.43;;
18286;SDS011;9269;50.838;12.094;2022-09-09T01:13:14;2.07;;;1.47;;
18286;SDS011;9269;50.838;12.094;2022-09-09T01:15:46;2.13;;;1.63;;
18286;SDS011;9269;50.838;12.094;2022-09-09T01:18:17;1.60;;;1.50;;
18286;SDS011;9269;50.838;12.094;2022-09-09T01:20:52;1.80;;;1.70;;
18286;SDS011;9269;50.838;12.094;2022-09-09T01:23:37;1.57;;;1.47;;
18286;SDS011;9269;50.838;12.094;2022-09-09T01:26:21;1.50;;;1.40;;
18286;SDS011;9269;50.838;12.094;2022-09-09T01:28:54;2.83;;;1.80;;
18286;SDS011;9269;50.838;12.094;2022-09-09T01:31:23;2.70;;;1.60;;
18286;SDS011;9269;50.838;12.094;2022-09-09T01:33:56;1.77;;;1.47;;
18286;SDS011;9269;50.838;12.094;2022-09-09T01:36:28;1.47;;;1.37;;
18286;SDS011;9269;50.838;12.094;2022-09-09T01:39:08;1.70;;;1.60;;
18286;SDS011;9269;50.838;12.094;2022-09-09T01:41:39;3.17;;;1.63;;
18286;SDS011;9269;50.838;12.094;2022-09-09T01:44:08;1.43;;;1.33;;
18286;SDS011;9269;50.838;12.094;2022-09-09T01:46:37;1.80;;;1.47;;
18286;SDS011;9269;50.838;12.094;2022-09-09T01:49:07;1.70;;;1.53;;
18286;SDS011;9269;50.838;12.094;2022-09-09T01:51:37;2.80;;;1.83;;
18286;SDS011;9269;50.838;12.094;2022-09-09T01:54:09;2.87;;;1.60;;
18286;SDS011;9269;50.838;12.094;2022-09-09T01:56:42;1.70;;;1.60;;
18286;SDS011;9269;50.838;12.094;2022-09-09T01:59:28;2.33;;;1.97;;
18286;SDS011;9269;50.838;12.094;2022-09-09T02:02:22;2.77;;;2.20;;
18286;SDS011;9269;50.838;12.094;2022-09-09T02:05:00;3.17;;;2.00;;
18286;SDS011;9269;50.838;12.094;2022-09-09T02:07:41;3.20;;;1.90;;
18286;SDS011;9269;50.838;12.094;2022-09-09T02:10:16;2.77;;;1.80;;
18286;SDS011;9269;50.838;12.094;2022-09-09T02:12:50;3.43;;;2.00;;
18286;SDS011;9269;50.838;12.094;2022-09-09T02:15:34;3.57;;;2.00;;
18286;SDS011;9269;50.838;12.094;2022-09-09T02:18:07;4.27;;;2.47;;
18286;SDS011;9269;50.838;12.094;2022-09-09T02:20:38;5.30;;;2.30;;
18286;SDS011;9269;50.838;12.094;2022-09-09T02:23:07;3.00;;;2.07;;
18286;SDS011;9269;50.838;12.094;2022-09-09T02:25:38;4.30;;;2.47;;
18286;SDS011;9269;50.838;12.094;2022-09-09T02:31:28;4.50;;;2.37;;
18286;SDS011;9269;50.838;12.094;2022-09-09T02:33:59;4.23;;;2.40;;
18286;SDS011;9269;50.838;12.094;2022-09-09T02:36:49;1.87;;;1.70;;
18286;SDS011;9269;50.838;12.094;2022-09-09T02:39:20;2.93;;;2.07;;
18286;SDS011;9269;50.838;12.094;2022-09-09T02:41:48;2.80;;;2.20;;
18286;SDS011;9269;50.838;12.094;2022-09-09T02:44:18;4.40;;;2.33;;
18286;SDS011;9269;50.838;12.094;2022-09-09T02:47:01;3.40;;;2.20;;
18286;SDS011;9269;50.838;12.094;2022-09-09T02:49:41;3.00;;;2.70;;
18286;SDS011;9269;50.838;12.094;2022-09-09T02:52:19;3.03;;;2.40;;
18286;SDS011;9269;50.838;12.094;2022-09-09T02:54:54;2.53;;;2.10;;
18286;SDS011;9269;50.838;12.094;2022-09-09T02:57:33;4.47;;;2.40;;
18286;SDS011;9269;50.838;12.094;2022-09-09T03:00:03;3.53;;;2.43;;
18286;SDS011;9269;50.838;12.094;2022-09-09T03:02:33;5.03;;;2.07;;
18286;SDS011;9269;50.838;12.094;2022-09-09T03:05:03;3.60;;;2.40;;
18286;SDS011;9269;50.838;12.094;2022-09-09T03:07:32;3.40;;;2.13;;
18286;SDS011;9269;50.838;12.094;2022-09-09T03:10:02;3.97;;;2.37;;
18286;SDS011;9269;50.838;12.094;2022-09-09T03:12:32;4.53;;;2.43;;
18286;SDS011;9269;50.838;12.094;2022-09-09T03:15:01;3.73;;;2.10;;
18286;SDS011;9269;50.838;12.094;2022-09-09T03:17:30;4.03;;;1.83;;
18286;SDS011;9269;50.838;12.094;2022-09-09T03:20:02;2.33;;;1.83;;
18286;SDS011;9269;50.838;12.094;2022-09-09T03:22:31;2.43;;;1.80;;
18286;SDS011;9269;50.838;12.094;2022-09-09T03:24:59;2.10;;;1.80;;
18286;SDS011;9269;50.838;12.094;2022-09-09T03:27:29;2.50;;;1.60;;
18286;SDS011;9269;50.838;12.094;2022-09-09T03:29:57;4.30;;;2.10;;
18286;SDS011;9269;50.838;12.094;2022-09-09T03:32:31;4.40;;;1.80;;
18286;SDS011;9269;50.838;12.094;2022-09-09T03:35:01;3.50;;;1.57;;
18286;SDS011;9269;50.838;12.094;2022-09-09T03:37:30;5.10;;;1.97;;
18286;SDS011;9269;50.838;12.094;2022-09-09T03:39:59;1.40;;;1.30;;
18286;SDS011;9269;50.838;12.094;2022-09-09T03:42:41;2.07;;;1.40;;
18286;SDS011;9269;50.838;12.094;2022-09-09T03:45:29;1.60;;;1.50;;
18286;SDS011;9269;50.838;12.094;2022-09-09T03:48:01;2.17;;;1.50;;
18286;SDS011;9269;50.838;12.094;2022-09-09T03:50:30;2.73;;;1.27;;
18286;SDS011;9269;50.838;12.094;2022-09-09T03:53:00;2.23;;;1.47;;
18286;SDS011;9269;50.838;12.094;2022-09-09T03:55:28;1.97;;;1.57;;
18286;SDS011;9269;50.838;12.094;2022-09-09T03:57:56;1.60;;;1.50;;
18286;SDS011;9269;50.838;12.094;2022-09-09T04:00:27;2.17;;;1.40;;
18286;SDS011;9269;50.838;12.094;2022-09-09T04:03:03;2.93;;;1.50;;
18286;SDS011;9269;50.838;12.094;2022-09-09T04:05:34;1.53;;;1.43;;
18286;SDS011;9269;50.838;12.094;2022-09-09T04:08:06;1.73;;;1.63;;
18286;SDS011;9269;50.838;12.094;2022-09-09T04:10:35;1.40;;;1.30;;
18286;SDS011;9269;50.838;12.094;2022-09-09T04:13:04;2.03;;;1.50;;
18286;SDS011;9269;50.838;12.094;2022-09-09T04:15:33;2.67;;;1.70;;
18286;SDS011;9269;50.838;12.094;2022-09-09T04:18:02;1.87;;;1.30;;
18286;SDS011;9269;50.838;12.094;2022-09-09T04:20:34;1.67;;;1.50;;
18286;SDS011;9269;50.838;12.094;2022-09-09T04:23:09;2.73;;;1.73;;
18286;SDS011;9269;50.838;12.094;2022-09-09T04:25:37;3.17;;;1.30;;
18286;SDS011;9269;50.838;12.094;2022-09-09T04:28:08;1.77;;;1.30;;
18286;SDS011;9269;50.838;12.094;2022-09-09T04:30:50;1.40;;;1.30;;
18286;SDS011;9269;50.838;12.094;2022-09-09T04:33:38;2.73;;;1.50;;
18286;SDS011;9269;50.838;12.094;2022-09-09T04:36:27;3.27;;;1.53;;
18286;SDS011;9269;50.838;12.094;2022-09-09T04:39:15;2.33;;;1.40;;
18286;SDS011;9269;50.838;12.094;2022-09-09T04:42:03;1.30;;;1.20;;
18286;SDS011;9269;50.838;12.094;2022-09-09T04:44:34;2.07;;;1.30;;
18286;SDS011;9269;50.838;12.094;2022-09-09T04:47:10;1.40;;;1.30;;
18286;SDS011;9269;50.838;12.094;2022-09-09T04:49:39;2.83;;;1.37;;
18286;SDS011;9269;50.838;12.094;2022-09-09T04:52:10;2.80;;;1.67;;
18286;SDS011;9269;50.838;12.094;2022-09-09T04:54:39;1.70;;;1.23;;
18286;SDS011;9269;50.838;12.094;2022-09-09T04:57:09;1.53;;;1.43;;
18286;SDS011;9269;50.838;12.094;2022-09-09T04:59:51;2.50;;;1.40;;
18286;SDS011;9269;50.838;12.094;2022-09-09T05:02:20;2.13;;;1.30;;
18286;SDS011;9269;50.838;12.094;2022-09-09T05:04:48;1.60;;;1.47;;
18286;SDS011;9269;50.838;12.094;2022-09-09T05:07:18;2.30;;;1.20;;
18286;SDS011;9269;50.838;12.094;2022-09-09T05:09:55;2.30;;;1.43;;
18286;SDS011;9269;50.838;12.094;2022-09-09T05:12:24;2.83;;;1.50;;
18286;SDS011;9269;50.838;12.094;2022-09-09T05:14:53;2.30;;;1.43;;
18286;SDS011;9269;50.838;12.094;2022-09-09T05:17:22;2.83;;;1.50;;
18286;SDS011;9269;50.838;12.094;2022-09-09T05:20:07;3.50;;;1.50;;
18286;SDS011;9269;50.838;12.094;2022-09-09T05:23:03;1.70;;;1.33;;
18286;SDS011;9269;50.838;12.094;2022-09-09T05:25:55;2.57;;;1.70;;
18286;SDS011;9269;50.838;12.094;2022-09-09T05:28:25;2.70;;;1.50;;
18286;SDS011;9269;50.838;12.094;2022-09-09T05:30:56;4.13;;;1.50;;
18286;SDS011;9269;50.838;12.094;2022-09-09T05:33:47;3.93;;;1.60;;
18286;SDS011;9269;50.838;12.094;2022-09-09T05:36:22;2.43;;;1.50;;
18286;SDS011;9269;50.838;12.094;2022-09-09T05:39:08;2.67;;;1.50;;
18286;SDS011;9269;50.838;12.094;2022-09-09T05:41:39;3.00;;;1.60;;
18286;SDS011;9269;50.838;12.094;2022-09-09T05:44:09;2.10;;;1.67;;
18286;SDS011;9269;50.838;12.094;2022-09-09T05:46:57;4.10;;;1.80;;
18286;SDS011;9269;50.838;12.094;2022-09-09T05:49:45;3.40;;;1.87;;
18286;SDS011;9269;50.838;12.094;2022-09-09T05:52:14;1.60;;;1.03;;
18286;SDS011;9269;50.838;12.094;2022-09-09T05:54:44;2.47;;;1.40;;
18286;SDS011;9269;50.838;12.094;2022-09-09T05:57:32;4.30;;;1.50;;
18286;SDS011;9269;50.838;12.094;2022-09-09T06:00:19;2.23;;;1.40;;
18286;SDS011;9269;50.838;12.094;2022-09-09T06:03:09;3.00;;;1.40;;
18286;SDS011;9269;50.838;12.094;2022-09-09T06:05:58;2.83;;;1.60;;
18286;SDS011;9269;50.838;12.094;2022-09-09T06:08:48;1.50;;;1.40;;
18286;SDS011;9269;50.838;12.094;2022-09-09T06:11:39;2.90;;;1.67;;
18286;SDS011;9269;50.838;12.094;2022-09-09T06:14:27;3.03;;;1.60;;
18286;SDS011;9269;50.838;12.094;2022-09-09T06:17:15;2.13;;;1.70;;
18286;SDS011;9269;50.838;12.094;2022-09-09T06:20:03;2.70;;;1.73;;
18286;SDS011;9269;50.838;12.094;2022-09-09T06:22:51;2.00;;;1.50;;
18286;SDS011;9269;50.838;12.094;2022-09-09T06:25:39;2.23;;;1.60;;
18286;SDS011;9269;50.838;12.094;2022-09-09T06:28:28;2.87;;;1.73;;
18286;SDS011;9269;50.838;12.094;2022-09-09T06:30:57;3.97;;;1.90;;
18286;SDS011;9269;50.838;12.094;2022-09-09T06:33:26;3.40;;;1.93;;
18286;SDS011;9269;50.838;12.094;2022-09-09T06:36:18;4.50;;;1.70;;
18286;SDS011;9269;50.838;12.094;2022-09-09T06:38:53;2.97;;;2.20;;
18286;SDS011;9269;50.838;12.094;2022-09-09T06:41:24;2.70;;;1.80;;
18286;SDS011;9269;50.838;12.094;2022-09-09T06:43:55;3.60;;;2.10;;
18286;SDS011;9269;50.838;12.094;2022-09-09T06:46:27;5.07;;;2.70;;
18286;SDS011;9269;50.838;12.094;2022-09-09T06:49:08;4.33;;;2.77;;
18286;SDS011;9269;50.838;12.094;2022-09-09T06:51:56;3.43;;;2.77;;
18286;SDS011;9269;50.838;12.094;2022-09-09T06:54:44;4.00;;;3.07;;
18286;SDS011;9269;50.838;12.094;2022-09-09T06:57:32;7.43;;;2.80;;
18286;SDS011;9269;50.838;12.094;2022-09-09T07:00:09;4.87;;;2.57;;
18286;SDS011;9269;50.838;12.094;2022-09-09T07:02:39;3.63;;;2.90;;
18286;SDS011;9269;50.838;12.094;2022-09-09T07:05:08;5.60;;;3.70;;
18286;SDS011;9269;50.838;12.094;2022-09-09T07:07:36;4.77;;;2.93;;
18286;SDS011;9269;50.838;12.094;2022-09-09T07:10:24;4.63;;;2.57;;
18286;SDS011;9269;50.838;12.094;2022-09-09T07:13:05;5.63;;;3.23;;
18286;SDS011;9269;50.838;12.094;2022-09-09T07:15:47;4.57;;;2.93;;
18286;SDS011;9269;50.838;12.094;2022-09-09T07:18:35;2.50;;;2.30;;
18286;SDS011;9269;50.838;12.094;2022-09-09T07:21:24;3.73;;;2.47;;
18286;SDS011;9269;50.838;12.094;2022-09-09T07:23:56;4.40;;;2.27;;
18286;SDS011;9269;50.838;12.094;2022-09-09T07:26:25;3.37;;;2.27;;
18286;SDS011;9269;50.838;12.094;2022-09-09T07:28:55;3.60;;;2.33;;
18286;SDS011;9269;50.838;12.094;2022-09-09T07:31:26;3.60;;;2.20;;
18286;SDS011;9269;50.838;12.094;2022-09-09T07:33:58;4.40;;;2.33;;
18286;SDS011;9269;50.838;12.094;2022-09-09T07:36:29;3.43;;;2.07;;
18286;SDS011;9269;50.838;12.094;2022-09-09T07:39:01;3.20;;;2.30;;
18286;SDS011;9269;50.838;12.094;2022-09-09T07:41:32;4.67;;;2.50;;
18286;SDS011;9269;50.838;12.094;2022-09-09T07:44:04;3.63;;;2.77;;
18286;SDS011;9269;50.838;12.094;2022-09-09T07:46:42;4.77;;;2.77;;
18286;SDS011;9269;50.838;12.094;2022-09-09T07:49:12;5.33;;;2.43;;
18286;SDS011;9269;50.838;12.094;2022-09-09T07:51:44;3.57;;;2.53;;
18286;SDS011;9269;50.838;12.094;2022-09-09T07:54:17;3.63;;;2.17;;
18286;SDS011;9269;50.838;12.094;2022-09-09T07:56:51;3.07;;;2.33;;
18286;SDS011;9269;50.838;12.094;2022-09-09T07:59:23;4.50;;;2.50;;
18286;SDS011;9269;50.838;12.094;2022-09-09T08:02:13;6.63;;;3.00;;
18286;SDS011;9269;50.838;12.094;2022-09-09T08:04:42;5.10;;;2.77;;
18286;SDS011;9269;50.838;12.094;2022-09-09T08:07:11;3.23;;;2.70;;
18286;SDS011;9269;50.838;12.094;2022-09-09T08:09:42;6.10;;;2.60;;
18286;SDS011;9269;50.838;12.094;2022-09-09T08:12:11;4.47;;;2.50;;
18286;SDS011;9269;50.838;12.094;2022-09-09T08:14:41;3.33;;;1.73;;
18286;SDS011;9269;50.838;12.094;2022-09-09T08:17:12;5.50;;;2.40;;
18286;SDS011;9269;50.838;12.094;2022-09-09T08:19:41;5.83;;;1.90;;
18286;SDS011;9269;50.838;12.094;2022-09-09T08:22:09;3.60;;;2.00;;
18286;SDS011;9269;50.838;12.094;2022-09-09T08:24:37;4.57;;;1.93;;
18286;SDS011;9269;50.838;12.094;2022-09-09T08:27:07;5.17;;;2.07;;
18286;SDS011;9269;50.838;12.094;2022-09-09T08:29:43;5.63;;;2.10;;
18286;SDS011;9269;50.838;12.094;2022-09-09T08:32:13;2.77;;;1.83;;
18286;SDS011;9269;50.838;12.094;2022-09-09T08:34:41;4.00;;;1.87;;
18286;SDS011;9269;50.838;12.094;2022-09-09T08:37:12;4.53;;;1.80;;
18286;SDS011;9269;50.838;12.094;2022-09-09T08:40:00;3.23;;;2.07;;
18286;SDS011;9269;50.838;12.094;2022-09-09T08:42:32;3.80;;;2.07;;
18286;SDS011;9269;50.838;12.094;2022-09-09T08:45:29;7.00;;;2.40;;
18286;SDS011;9269;50.838;12.094;2022-09-09T08:48:21;1.90;;;1.70;;
18286;SDS011;9269;50.838;12.094;2022-09-09T08:51:05;4.10;;;1.70;;
18286;SDS011;9269;50.838;12.094;2022-09-09T08:53:50;2.83;;;1.63;;
18286;SDS011;9269;50.838;12.094;2022-09-09T08:56:44;2.93;;;1.73;;
18286;SDS011;9269;50.838;12.094;2022-09-09T08:59:16;3.50;;;1.60;;
18286;SDS011;9269;50.838;12.094;2022-09-09T09:02:00;2.53;;;1.80;;
18286;SDS011;9269;50.838;12.094;2022-09-09T09:04:49;4.67;;;1.97;;
18286;SDS011;9269;50.838;12.094;2022-09-09T09:07:32;1.90;;;1.70;;
18286;SDS011;9269;50.838;12.094;2022-09-09T09:10:15;3.37;;;1.83;;
18286;SDS011;9269;50.838;12.094;2022-09-09T09:13:15;4.73;;;2.10;;
18286;SDS011;9269;50.838;12.094;2022-09-09T09:15:49;2.87;;;2.00;;
18286;SDS011;9269;50.838;12.094;2022-09-09T09:18:22;4.73;;;2.10;;
18286;SDS011;9269;50.838;12.094;2022-09-09T09:20:58;3.30;;;2.20;;
18286;SDS011;9269;50.838;12.094;2022-09-09T09:23:35;3.90;;;2.27;;
18286;SDS011;9269;50.838;12.094;2022-09-09T09:26:10;6.93;;;2.53;;
18286;SDS011;9269;50.838;12.094;2022-09-09T09:28:39;5.73;;;2.40;;
18286;SDS011;9269;50.838;12.094;2022-09-09T09:31:09;2.50;;;1.70;;
18286;SDS011;9269;50.838;12.094;2022-09-09T09:33:46;3.57;;;1.70;;
18286;SDS011;9269;50.838;12.094;2022-09-09T09:36:21;2.57;;;1.50;;
18286;SDS011;9269;50.838;12.094;2022-09-09T09:38:54;3.33;;;1.50;;
18286;SDS011;9269;50.838;12.094;2022-09-09T09:41:51;3.03;;;1.60;;
18286;SDS011;9269;50.838;12.094;2022-09-09T09:44:22;2.90;;;1.40;;
18286;SDS011;9269;50.838;12.094;2022-09-09T09:47:05;1.90;;;1.40;;
18286;SDS011;9269;50.838;12.094;2022-09-09T09:49:35;1.93;;;1.30;;
18286;SDS011;9269;50.838;12.094;2022-09-09T09:52:06;1.70;;;1.50;;
18286;SDS011;9269;50.838;12.094;2022-09-09T09:54:44;2.80;;;2.00;;
18286;SDS011;9269;50.838;12.094;2022-09-09T09:57:18;4.37;;;1.70;;
18286;SDS011;9269;50.838;12.094;2022-09-09T10:00:03;2.77;;;1.50;;
18286;SDS011;9269;50.838;12.094;2022-09-09T10:02:41;3.77;;;1.70;;
18286;SDS011;9269;50.838;12.094;2022-09-09T10:05:19;3.93;;;1.97;;
18286;SDS011;9269;50.838;12.094;2022-09-09T10:08:04;3.63;;;1.73;;
18286;SDS011;9269;50.838;12.094;2022-09-09T10:10:42;2.40;;;1.60;;
18286;SDS011;9269;50.838;12.094;2022-09-09T10:13:23;3.17;;;1.73;;
18286;SDS011;9269;50.838;12.094;2022-09-09T10:16:05;3.60;;;1.40;;
18286;SDS011;9269;50.838;12.094;2022-09-09T10:18:59;2.07;;;1.40;;
18286;SDS011;9269;50.838;12.094;2022-09-09T10:21:48;3.20;;;1.53;;
18286;SDS011;9269;50.838;12.094;2022-09-09T10:24:34;2.70;;;1.17;;
18286;SDS011;9269;50.838;12.094;2022-09-09T10:27:19;2.17;;;1.30;;
18286;SDS011;9269;50.838;12.094;2022-09-09T10:29:54;3.17;;;1.40;;
18286;SDS011;9269;50.838;12.094;2022-09-09T10:32:38;2.93;;;1.20;;
18286;SDS011;9269;50.838;12.094;2022-09-09T10:35:10;3.10;;;1.60;;
18286;SDS011;9269;50.838;12.094;2022-09-09T10:37:48;2.63;;;1.50;;
18286;SDS011;9269;50.838;12.094;2022-09-09T10:40:33;4.07;;;1.63;;
18286;SDS011;9269;50.838;12.094;2022-09-09T10:43:09;2.83;;;1.40;;
18286;SDS011;9269;50.838;12.094;2022-09-09T10:45:49;2.90;;;1.13;;
18286;SDS011;9269;50.838;12.094;2022-09-09T10:48:30;2.83;;;1.27;;
18286;SDS011;9269;50.838;12.094;2022-09-09T10:51:10;2.83;;;1.10;;
18286;SDS011;9269;50.838;12.094;2022-09-09T10:53:52;3.13;;;1.30;;
18286;SDS011;9269;50.838;12.094;2022-09-09T10:56:33;2.60;;;1.13;;
18286;SDS011;9269;50.838;12.094;2022-09-09T10:59:04;3.37;;;1.50;;
18286;SDS011;9269;50.838;12.094;2022-09-09T11:01:41;1.93;;;1.17;;
18286;SDS011;9269;50.838;12.094;2022-09-09T11:04:15;3.17;;;1.20;;
18286;SDS011;9269;50.838;12.094;2022-09-09T11:06:54;2.07;;;1.00;;
18286;SDS011;9269;50.838;12.094;2022-09-09T11:09:24;3.77;;;1.10;;
18286;SDS011;9269;50.838;12.094;2022-09-09T11:11:57;3.87;;;1.30;;
18286;SDS011;9269;50.838;12.094;2022-09-09T11:14:29;2.33;;;1.30;;
18286;SDS011;9269;50.838;12.094;2022-09-09T11:17:06;2.30;;;1.20;;
18286;SDS011;9269;50.838;12.094;2022-09-09T11:19:44;2.73;;;1.10;;
18286;SDS011;9269;50.838;12.094;2022-09-09T11:22:15;2.77;;;1.20;;
18286;SDS011;9269;50.838;12.094;2022-09-09T11:24:57;2.40;;;1.27;;
18286;SDS011;9269;50.838;12.094;2022-09-09T11:27:31;1.80;;;1.20;;
18286;SDS011;9269;50.838;12.094;2022-09-09T11:30:18;2.13;;;1.30;;
18286;SDS011;9269;50.838;12.094;2022-09-09T11:36:27;3.27;;;1.20;;
18286;SDS011;9269;50.838;12.094;2022-09-09T11:39:14;2.63;;;0.90;;
18286;SDS011;9269;50.838;12.094;2022-09-09T11:42:06;2.57;;;1.37;;
18286;SDS011;9269;50.838;12.094;2022-09-09T11:44:38;3.27;;;1.13;;
18286;SDS011;9269;50.838;12.094;2022-09-09T11:47:21;3.17;;;1.47;;
18286;SDS011;9269;50.838;12.094;2022-09-09T11:50:07;3.17;;;1.27;;
18286;SDS011;9269;50.838;12.094;2022-09-09T11:52:39;2.17;;;1.30;;
18286;SDS011;9269;50.838;12.094;2022-09-09T11:55:11;1.53;;;0.93;;
18286;SDS011;9269;50.838;12.094;2022-09-09T11:57:57;1.60;;;1.17;;
18286;SDS011;9269;50.838;12.094;2022-09-09T12:00:35;3.17;;;1.00;;
18286;SDS011;9269;50.838;12.094;2022-09-09T12:03:05;3.00;;;1.10;;
18286;SDS011;9269;50.838;12.094;2022-09-09T12:05:56;2.93;;;1.20;;
18286;SDS011;9269;50.838;12.094;2022-09-09T12:08:26;2.67;;;1.00;;
18286;SDS011;9269;50.838;12.094;2022-09-09T12:10:57;1.80;;;1.03;;
18286;SDS011;9269;50.838;12.094;2022-09-09T12:13:29;4.17;;;1.00;;
18286;SDS011;9269;50.838;12.094;2022-09-09T12:15:59;2.30;;;0.90;;
18286;SDS011;9269;50.838;12.094;2022-09-09T12:18:31;2.40;;;1.17;;
18286;SDS011;9269;50.838;12.094;2022-09-09T12:21:03;3.67;;;1.60;;
18286;SDS011;9269;50.838;12.094;2022-09-09T12:23:37;1.63;;;0.90;;
18286;SDS011;9269;50.838;12.094;2022-09-09T12:26:23;2.53;;;1.20;;
18286;SDS011;9269;50.838;12.094;2022-09-09T12:29:03;2.27;;;1.43;;
18286;SDS011;9269;50.838;12.094;2022-09-09T12:31:44;2.10;;;1.00;;
18286;SDS011;9269;50.838;12.094;2022-09-09T12:34:17;1.77;;;1.03;;
18286;SDS011;9269;50.838;12.094;2022-09-09T12:36:52;1.43;;;0.93;;
18286;SDS011;9269;50.838;12.094;2022-09-09T12:39:31;2.03;;;1.00;;
18286;SDS011;9269;50.838;12.094;2022-09-09T12:42:04;1.10;;;0.70;;
18286;SDS011;9269;50.838;12.094;2022-09-09T12:44:33;3.27;;;0.90;;
18286;SDS011;9269;50.838;12.094;2022-09-09T12:47:03;2.53;;;1.10;;
18286;SDS011;9269;50.838;12.094;2022-09-09T12:49:32;2.73;;;1.00;;
18286;SDS011;9269;50.838;12.094;2022-09-09T12:52:05;1.90;;;1.03;;
18286;SDS011;9269;50.838;12.094;2022-09-09T12:54:38;3.53;;;1.30;;
18286;SDS011;9269;50.838;12.094;2022-09-09T12:57:13;2.10;;;0.93;;
18286;SDS011;9269;50.838;12.094;2022-09-09T12:59:43;1.63;;;0.97;;
18286;SDS011;9269;50.838;12.094;2022-09-09T13:02:21;3.10;;;0.87;;
18286;SDS011;9269;50.838;12.094;2022-09-09T13:04:52;2.57;;;1.00;;
18286;SDS011;9269;50.838;12.094;2022-09-09T13:07:24;2.53;;;1.00;;
18286;SDS011;9269;50.838;12.094;2022-09-09T13:09:55;2.30;;;1.10;;
18286;SDS011;9269;50.838;12.094;2022-09-09T13:12:25;1.73;;;0.60;;
18286;SDS011;9269;50.838;12.094;2022-09-09T13:14:55;0.97;;;0.87;;
18286;SDS011;9269;50.838;12.094;2022-09-09T13:17:48;3.20;;;1.10;;
18286;SDS011;9269;50.838;12.094;2022-09-09T13:20:19;1.97;;;0.80;;
18286;SDS011;9269;50.838;12.094;2022-09-09T13:22:49;2.40;;;1.00;;
18286;SDS011;9269;50.838;12.094;2022-09-09T13:25:21;1.37;;;0.80;;
18286;SDS011;9269;50.838;12.094;2022-09-09T13:27:58;2.80;;;1.10;;
18286;SDS011;9269;50.838;12.094;2022-09-09T13:30:32;1.80;;;1.13;;
18286;SDS011;9269;50.838;12.094;2022-09-09T13:33:18;5.67;;;1.17;;
18286;SDS011;9269;50.838;12.094;2022-09-09T13:35:51;2.67;;;0.90;;
18286;SDS011;9269;50.838;12.094;2022-09-09T13:38:23;1.87;;;1.03;;
18286;SDS011;9269;50.838;12.094;2022-09-09T13:40:54;1.43;;;1.00;;
18286;SDS011;9269;50.838;12.094;2022-09-09T13:43:25;1.43;;;0.93;;
18286;SDS011;9269;50.838;12.094;2022-09-09T13:45:56;2.40;;;0.87;;
18286;SDS011;9269;50.838;12.094;2022-09-09T13:48:28;1.50;;;0.80;;
18286;SDS011;9269;50.838;12.094;2022-09-09T13:51:01;2.67;;;0.97;;
18286;SDS011;9269;50.838;12.094;2022-09-09T13:53:32;1.67;;;0.90;;
18286;SDS011;9269;50.838;12.094;2022-09-09T13:56:01;2.53;;;1.00;;
18286;SDS011;9269;50.838;12.094;2022-09-09T13:58:32;3.00;;;1.00;;
18286;SDS011;9269;50.838;12.094;2022-09-09T14:01:03;2.73;;;1.13;;
18286;SDS011;9269;50.838;12.094;2022-09-09T14:03:33;1.60;;;0.77;;
18286;SDS011;9269;50.838;12.094;2022-09-09T14:06:04;2.40;;;1.00;;
18286;SDS011;9269;50.838;12.094;2022-09-09T14:08:34;2.27;;;1.10;;
18286;SDS011;9269;50.838;12.094;2022-09-09T14:11:04;2.23;;;1.20;;
18286;SDS011;9269;50.838;12.094;2022-09-09T14:13:33;1.33;;;1.00;;
18286;SDS011;9269;50.838;12.094;2022-09-09T14:16:02;2.47;;;1.03;;
18286;SDS011;9269;50.838;12.094;2022-09-09T14:18:32;2.20;;;1.00;;
18286;SDS011;9269;50.838;12.094;2022-09-09T14:21:07;1.30;;;1.03;;
18286;SDS011;9269;50.838;12.094;2022-09-09T14:23:37;1.87;;;0.93;;
18286;SDS011;9269;50.838;12.094;2022-09-09T14:26:06;1.30;;;0.80;;
18286;SDS011;9269;50.838;12.094;2022-09-09T14:28:35;2.87;;;1.00;;
18286;SDS011;9269;50.838;12.094;2022-09-09T14:31:21;2.47;;;1.20;;
18286;SDS011;9269;50.838;12.094;2022-09-09T14:33:52;4.07;;;1.20;;
18286;SDS011;9269;50.838;12.094;2022-09-09T14:36:22;2.17;;;0.80;;
18286;SDS011;9269;50.838;12.094;2022-09-09T14:38:54;1.47;;;0.90;;
18286;SDS011;9269;50.838;12.094;2022-09-09T14:41:24;1.23;;;0.80;;
18286;SDS011;9269;50.838;12.094;2022-09-09T14:43:59;2.80;;;1.07;;
18286;SDS011;9269;50.838;12.094;2022-09-09T14:46:29;1.63;;;1.00;;
18286;SDS011;9269;50.838;12.094;2022-09-09T14:49:02;2.47;;;1.10;;
18286;SDS011;9269;50.838;12.094;2022-09-09T14:51:32;1.77;;;0.93;;
18286;SDS011;9269;50.838;12.094;2022-09-09T14:54:13;1.43;;;1.10;;
18286;SDS011;9269;50.838;12.094;2022-09-09T14:56:41;2.43;;;1.10;;
18286;SDS011;9269;50.838;12.094;2022-09-09T14:59:10;2.57;;;1.07;;
18286;SDS011;9269;50.838;12.094;2022-09-09T15:01:41;2.40;;;0.80;;
18286;SDS011;9269;50.838;12.094;2022-09-09T15:04:13;1.77;;;0.70;;
18286;SDS011;9269;50.838;12.094;2022-09-09T15:06:43;1.33;;;0.53;;
18286;SDS011;9269;50.838;12.094;2022-09-09T15:09:15;1.37;;;0.60;;
18286;SDS011;9269;50.838;12.094;2022-09-09T15:11:48;1.63;;;0.70;;
18286;SDS011;9269;50.838;12.094;2022-09-09T15:14:18;1.50;;;0.87;;
18286;SDS011;9269;50.838;12.094;2022-09-09T15:16:51;0.40;;;0.40;;
18286;SDS011;9269;50.838;12.094;2022-09-09T15:19:22;0.87;;;0.70;;
18286;SDS011;9269;50.838;12.094;2022-09-09T15:21:53;1.17;;;0.53;;
18286;SDS011;9269;50.838;12.094;2022-09-09T15:24:24;3.03;;;0.80;;
18286;SDS011;9269;50.838;12.094;2022-09-09T15:26:53;2.07;;;0.73;;
18286;SDS011;9269;50.838;12.094;2022-09-09T15:29:24;3.37;;;0.83;;
18286;SDS011;9269;50.838;12.094;2022-09-09T15:32:01;2.13;;;0.80;;
18286;SDS011;9269;50.838;12.094;2022-09-09T15:34:33;0.57;;;0.57;;
18286;SDS011;9269;50.838;12.094;2022-09-09T15:37:06;2.10;;;0.70;;
18286;SDS011;9269;50.838;12.094;2022-09-09T15:39:41;3.67;;;0.90;;
18286;SDS011;9269;50.838;12.094;2022-09-09T15:42:10;1.43;;;0.87;;
18286;SDS011;9269;50.838;12.094;2022-09-09T15:44:41;1.27;;;0.80;;
18286;SDS011;9269;50.838;12.094;2022-09-09T15:47:10;1.17;;;0.83;;